DAL721 KSNA-KATL
Flight info
| Callsign | DAL721 |
|---|---|
| Flight time | N/A |
| Altitude | 35000 |
| Route | STAYY4 TCATE IPL J18 GBN J50 SSO J4 EWM DOZED ABI MQP FUZ MHZ MERDN ORRKK HOBTT3 |
| Aircraft | B752/M-SDE2E3FGHIJ3J4J7RWXY/LB1 |
Departure
| Time | 2026-05-06 17:17 |
|---|---|
| Airport | John Wayne Orange County International Airport (KSNA) |
Arrival
| Time | N/A |
|---|---|
| Airport | Hartsfield Jackson Atlanta International Airport (KATL) |
| Time | Latitude | Longitude | Altitude | Speed | Heading |
|---|---|---|---|---|---|
| 2026-05-06 16:56 | 33.68145 | -117.86098 | 67 ft | 0 kts | 116° |
| 2026-05-06 17:11 | 33.68155 | -117.86120 | 67 ft | 4 kts | 118° |
| 2026-05-06 17:12 | 33.68168 | -117.86143 | 67 ft | 4 kts | 138° |
| 2026-05-06 17:12 | 33.68189 | -117.86152 | 67 ft | 4 kts | 186° |
| 2026-05-06 17:12 | 33.68214 | -117.86142 | 67 ft | 4 kts | 207° |
| 2026-05-06 17:12 | 33.68221 | -117.86137 | 67 ft | 1 kts | 207° |
| 2026-05-06 17:13 | 33.68223 | -117.86136 | 67 ft | 0 kts | 207° |
| 2026-05-06 17:14 | 33.68222 | -117.86136 | 67 ft | 1 kts | 207° |
| 2026-05-06 17:14 | 33.68200 | -117.86151 | 67 ft | 6 kts | 207° |
| 2026-05-06 17:14 | 33.68167 | -117.86171 | 67 ft | 9 kts | 208° |
| 2026-05-06 17:15 | 33.68097 | -117.86216 | 67 ft | 13 kts | 208° |
| 2026-05-06 17:15 | 33.68052 | -117.86278 | 67 ft | 9 kts | 280° |
| 2026-05-06 17:15 | 33.68083 | -117.86358 | 67 ft | 12 kts | 297° |
| 2026-05-06 17:15 | 33.68135 | -117.86477 | 67 ft | 9 kts | 298° |
| 2026-05-06 17:16 | 33.68140 | -117.86519 | 67 ft | 7 kts | 242° |
| 2026-05-06 17:16 | 33.68121 | -117.86537 | 67 ft | 0 kts | 208° |
| 2026-05-06 17:16 | 33.68115 | -117.86541 | 67 ft | 2 kts | 208° |
| 2026-05-06 17:16 | 33.68058 | -117.86577 | 67 ft | 25 kts | 207° |
| 2026-05-06 17:17 | 33.67731 | -117.86782 | 67 ft | 84 kts | 209° |
| 2026-05-06 17:17 | 33.67021 | -117.87228 | 67 ft | 145 kts | 207° |
| 2026-05-06 17:17 | 33.66090 | -117.87818 | 730 ft | 146 kts | 209° |
| 2026-05-06 17:17 | 33.65209 | -117.88377 | 1653 ft | 144 kts | 208° |
| 2026-05-06 17:18 | 33.64278 | -117.88949 | 2187 ft | 155 kts | 207° |
| 2026-05-06 17:18 | 33.63318 | -117.89569 | 2420 ft | 165 kts | 208° |
| 2026-05-06 17:18 | 33.62216 | -117.90253 | 2545 ft | 190 kts | 203° |
| 2026-05-06 17:18 | 33.60894 | -117.90656 | 3017 ft | 203 kts | 186° |
| 2026-05-06 17:19 | 33.59419 | -117.90717 | 3511 ft | 222 kts | 179° |
| 2026-05-06 17:19 | 33.57825 | -117.90454 | 4041 ft | 238 kts | 163° |
| 2026-05-06 17:19 | 33.56246 | -117.90021 | 4964 ft | 237 kts | 175° |
| 2026-05-06 17:19 | 33.54578 | -117.90472 | 5388 ft | 261 kts | 205° |
| 2026-05-06 17:20 | 33.52933 | -117.91530 | 6011 ft | 274 kts | 201° |
| 2026-05-06 17:20 | 33.51039 | -117.91758 | 6780 ft | 278 kts | 168° |
| 2026-05-06 17:20 | 33.49340 | -117.90709 | 7609 ft | 280 kts | 135° |
| 2026-05-06 17:20 | 33.48369 | -117.88712 | 8388 ft | 282 kts | 102° |
| 2026-05-06 17:21 | 33.48261 | -117.86371 | 9258 ft | 282 kts | 86° |
| 2026-05-06 17:21 | 33.48353 | -117.84021 | 10126 ft | 283 kts | 85° |
| 2026-05-06 17:21 | 33.48445 | -117.81634 | 10668 ft | 300 kts | 85° |
| 2026-05-06 17:21 | 33.48547 | -117.79026 | 10848 ft | 328 kts | 85° |
| 2026-05-06 17:22 | 33.48656 | -117.76185 | 11355 ft | 341 kts | 85° |
| 2026-05-06 17:22 | 33.48759 | -117.73383 | 12320 ft | 341 kts | 85° |
| 2026-05-06 17:22 | 33.48863 | -117.70535 | 13194 ft | 344 kts | 85° |
| 2026-05-06 17:22 | 33.48968 | -117.67644 | 14039 ft | 347 kts | 84° |
| 2026-05-06 17:23 | 33.49072 | -117.64747 | 14874 ft | 350 kts | 84° |
| 2026-05-06 17:23 | 33.49175 | -117.61823 | 15688 ft | 353 kts | 84° |
| 2026-05-06 17:23 | 33.49280 | -117.58871 | 16467 ft | 356 kts | 84° |
| 2026-05-06 17:23 | 33.49385 | -117.55891 | 17215 ft | 359 kts | 84° |
| 2026-05-06 17:24 | 33.49490 | -117.52885 | 17944 ft | 362 kts | 84° |
| 2026-05-06 17:24 | 33.49594 | -117.49891 | 18639 ft | 365 kts | 84° |
| 2026-05-06 17:24 | 33.49700 | -117.46827 | 19297 ft | 369 kts | 84° |
| 2026-05-06 17:24 | 33.49806 | -117.43735 | 19929 ft | 372 kts | 83° |
| 2026-05-06 17:25 | 33.49912 | -117.40608 | 20563 ft | 376 kts | 83° |
| 2026-05-06 17:25 | 33.50018 | -117.37468 | 21178 ft | 379 kts | 83° |
| 2026-05-06 17:25 | 33.50122 | -117.34340 | 21765 ft | 382 kts | 83° |
| 2026-05-06 17:25 | 33.50228 | -117.31138 | 22349 ft | 385 kts | 83° |
| 2026-05-06 17:26 | 33.50331 | -117.27915 | 22892 ft | 389 kts | 83° |
| 2026-05-06 17:26 | 33.50094 | -117.24652 | 23449 ft | 400 kts | 99° |
| 2026-05-06 17:26 | 33.48990 | -117.21576 | 24194 ft | 408 kts | 116° |
| 2026-05-06 17:26 | 33.47170 | -117.18902 | 24723 ft | 420 kts | 129° |
| 2026-05-06 17:27 | 33.44986 | -117.16493 | 25089 ft | 430 kts | 134° |
| 2026-05-06 17:27 | 33.42711 | -117.14202 | 25472 ft | 436 kts | 135° |
| 2026-05-06 17:27 | 33.40361 | -117.11859 | 25923 ft | 440 kts | 134° |
| 2026-05-06 17:27 | 33.38019 | -117.09490 | 26410 ft | 442 kts | 134° |
| 2026-05-06 17:28 | 33.35685 | -117.07081 | 26886 ft | 444 kts | 133° |
| 2026-05-06 17:28 | 33.33353 | -117.04635 | 27339 ft | 446 kts | 133° |
| 2026-05-06 17:28 | 33.31020 | -117.02158 | 27791 ft | 449 kts | 133° |
| 2026-05-06 17:28 | 33.28713 | -116.99690 | 28241 ft | 451 kts | 132° |
| 2026-05-06 17:29 | 33.26373 | -116.97174 | 28673 ft | 453 kts | 132° |
| 2026-05-06 17:29 | 33.24018 | -116.94635 | 29101 ft | 456 kts | 132° |
| 2026-05-06 17:29 | 33.21651 | -116.92083 | 29525 ft | 458 kts | 132° |
| 2026-05-06 17:29 | 33.19286 | -116.89532 | 29936 ft | 460 kts | 132° |
| 2026-05-06 17:30 | 33.16898 | -116.86958 | 30325 ft | 463 kts | 132° |
| 2026-05-06 17:30 | 33.14526 | -116.84402 | 30685 ft | 466 kts | 132° |
| 2026-05-06 17:30 | 33.12107 | -116.81797 | 31048 ft | 469 kts | 133° |
| 2026-05-06 17:30 | 33.09678 | -116.79186 | 31393 ft | 472 kts | 133° |
| 2026-05-06 17:31 | 33.07226 | -116.76551 | 31778 ft | 474 kts | 133° |
| 2026-05-06 17:31 | 33.04770 | -116.73918 | 32226 ft | 474 kts | 133° |
| 2026-05-06 17:31 | 33.02313 | -116.71285 | 32682 ft | 474 kts | 133° |
| 2026-05-06 17:31 | 32.99891 | -116.68691 | 33123 ft | 473 kts | 133° |
| 2026-05-06 17:32 | 32.97444 | -116.66073 | 33538 ft | 473 kts | 133° |
| 2026-05-06 17:32 | 32.94984 | -116.63443 | 33952 ft | 473 kts | 134° |
| 2026-05-06 17:32 | 32.92532 | -116.60822 | 34353 ft | 473 kts | 134° |
| 2026-05-06 17:32 | 32.90078 | -116.58201 | 34734 ft | 473 kts | 134° |
| 2026-05-06 17:33 | 32.87626 | -116.55583 | 35086 ft | 473 kts | 135° |
| 2026-05-06 17:33 | 32.85195 | -116.52990 | 35424 ft | 473 kts | 135° |
| 2026-05-06 17:33 | 32.82837 | -116.50266 | 35738 ft | 471 kts | 128° |
| 2026-05-06 17:33 | 32.81012 | -116.47047 | 35903 ft | 469 kts | 114° |
| 2026-05-06 17:34 | 32.79899 | -116.43416 | 36113 ft | 466 kts | 100° |
| 2026-05-06 17:34 | 32.79477 | -116.39651 | 36403 ft | 464 kts | 91° |
| 2026-05-06 17:34 | 32.79379 | -116.35829 | 36746 ft | 462 kts | 89° |
| 2026-05-06 17:34 | 32.79364 | -116.31991 | 36980 ft | 464 kts | 88° |
| 2026-05-06 17:35 | 32.79331 | -116.28141 | 36971 ft | 465 kts | 89° |
| 2026-05-06 17:35 | 32.79108 | -116.20521 | 36969 ft | 464 kts | 91° |
| 2026-05-06 17:36 | 32.78510 | -116.09040 | 36958 ft | 465 kts | 92° |
| 2026-05-06 17:36 | 32.78048 | -116.01358 | 36943 ft | 465 kts | 92° |
| 2026-05-06 17:37 | 32.77575 | -115.93677 | 36940 ft | 468 kts | 93° |
| 2026-05-06 17:37 | 32.77094 | -115.85925 | 36940 ft | 472 kts | 94° |
| 2026-05-06 17:38 | 32.76606 | -115.78127 | 36937 ft | 472 kts | 94° |
| 2026-05-06 17:38 | 32.76114 | -115.70339 | 36939 ft | 472 kts | 94° |
| 2026-05-06 17:39 | 32.75621 | -115.62593 | 36930 ft | 473 kts | 94° |
| 2026-05-06 17:39 | 32.75121 | -115.54806 | 36922 ft | 473 kts | 94° |
| 2026-05-06 17:40 | 32.74787 | -115.46990 | 36921 ft | 473 kts | 89° |
| 2026-05-06 17:40 | 32.74993 | -115.39219 | 36924 ft | 473 kts | 87° |
| 2026-05-06 17:41 | 32.75278 | -115.31396 | 36930 ft | 474 kts | 87° |
| 2026-05-06 17:41 | 32.75512 | -115.23552 | 36930 ft | 475 kts | 88° |
| 2026-05-06 17:42 | 32.75706 | -115.15701 | 36930 ft | 476 kts | 88° |